sensor_id;sensor_type;location;lat;lon;timestamp;temperature;humidity
6244;DHT22;3155;49.940;8.450;2022-11-11T00:01:14;2.40;99.90
6244;DHT22;3155;49.940;8.450;2022-11-11T00:03:41;2.30;99.90
6244;DHT22;3155;49.940;8.450;2022-11-11T00:06:14;2.20;99.90
6244;DHT22;3155;49.940;8.450;2022-11-11T00:08:41;2.00;99.90
6244;DHT22;3155;49.940;8.450;2022-11-11T00:11:10;2.00;99.90
6244;DHT22;3155;49.940;8.450;2022-11-11T00:13:38;1.90;99.90
6244;DHT22;3155;49.940;8.450;2022-11-11T00:16:14;1.90;99.90
6244;DHT22;3155;49.940;8.450;2022-11-11T00:18:42;2.10;99.90
6244;DHT22;3155;49.940;8.450;2022-11-11T00:21:28;2.10;99.90
6244;DHT22;3155;49.940;8.450;2022-11-11T00:27:09;2.20;99.90
6244;DHT22;3155;49.940;8.450;2022-11-11T00:29:36;2.20;99.90
6244;DHT22;3155;49.940;8.450;2022-11-11T00:32:05;2.20;99.90
6244;DHT22;3155;49.940;8.450;2022-11-11T00:34:50;2.20;99.90
6244;DHT22;3155;49.940;8.450;2022-11-11T00:37:50;2.20;99.90
6244;DHT22;3155;49.940;8.450;2022-11-11T00:40:16;2.10;99.90
6244;DHT22;3155;49.940;8.450;2022-11-11T00:42:43;2.00;99.90
6244;DHT22;3155;49.940;8.450;2022-11-11T00:45:11;2.00;99.90
6244;DHT22;3155;49.940;8.450;2022-11-11T00:47:38;1.90;99.90
6244;DHT22;3155;49.940;8.450;2022-11-11T00:50:26;1.90;99.90
6244;DHT22;3155;49.940;8.450;2022-11-11T00:53:20;2.00;99.90
6244;DHT22;3155;49.940;8.450;2022-11-11T00:55:53;2.10;99.90
6244;DHT22;3155;49.940;8.450;2022-11-11T00:58:20;2.10;99.90
6244;DHT22;3155;49.940;8.450;2022-11-11T01:00:49;2.10;99.90
6244;DHT22;3155;49.940;8.450;2022-11-11T01:03:21;2.00;99.90
6244;DHT22;3155;49.940;8.450;2022-11-11T01:05:48;2.00;99.90
6244;DHT22;3155;49.940;8.450;2022-11-11T01:08:15;1.90;99.90
6244;DHT22;3155;49.940;8.450;2022-11-11T01:10:42;1.80;99.90
6244;DHT22;3155;49.940;8.450;2022-11-11T01:13:22;1.70;99.90
6244;DHT22;3155;49.940;8.450;2022-11-11T01:15:51;1.60;99.90
6244;DHT22;3155;49.940;8.450;2022-11-11T01:18:23;1.50;99.90
6244;DHT22;3155;49.940;8.450;2022-11-11T01:23:25;1.50;99.90
6244;DHT22;3155;49.940;8.450;2022-11-11T01:25:52;1.40;99.90
6244;DHT22;3155;49.940;8.450;2022-11-11T01:28:19;1.40;99.90
6244;DHT22;3155;49.940;8.450;2022-11-11T01:30:46;1.40;99.90
6244;DHT22;3155;49.940;8.450;2022-11-11T01:33:12;1.50;99.90
6244;DHT22;3155;49.940;8.450;2022-11-11T01:35:40;1.50;99.90
6244;DHT22;3155;49.940;8.450;2022-11-11T01:38:08;1.40;99.90
6244;DHT22;3155;49.940;8.450;2022-11-11T01:40:43;1.30;99.90
6244;DHT22;3155;49.940;8.450;2022-11-11T01:43:18;1.30;99.90
6244;DHT22;3155;49.940;8.450;2022-11-11T01:45:47;1.30;99.90
6244;DHT22;3155;49.940;8.450;2022-11-11T01:48:38;1.30;99.90
6244;DHT22;3155;49.940;8.450;2022-11-11T01:51:48;1.50;99.90
6244;DHT22;3155;49.940;8.450;2022-11-11T01:57:18;1.70;99.90
6244;DHT22;3155;49.940;8.450;2022-11-11T01:59:49;1.70;99.90
6244;DHT22;3155;49.940;8.450;2022-11-11T02:02:21;1.70;99.90
6244;DHT22;3155;49.940;8.450;2022-11-11T02:04:50;1.70;99.90
6244;DHT22;3155;49.940;8.450;2022-11-11T02:07:36;1.80;99.90
6244;DHT22;3155;49.940;8.450;2022-11-11T02:10:05;1.80;99.90
6244;DHT22;3155;49.940;8.450;2022-11-11T02:12:34;1.90;99.90
6244;DHT22;3155;49.940;8.450;2022-11-11T02:15:22;2.00;99.90
6244;DHT22;3155;49.940;8.450;2022-11-11T02:17:49;2.10;99.90
6244;DHT22;3155;49.940;8.450;2022-11-11T02:20:22;2.10;99.90
6244;DHT22;3155;49.940;8.450;2022-11-11T02:25:57;2.10;99.90
6244;DHT22;3155;49.940;8.450;2022-11-11T02:28:26;2.10;99.90
6244;DHT22;3155;49.940;8.450;2022-11-11T02:30:53;2.10;99.90
6244;DHT22;3155;49.940;8.450;2022-11-11T02:33:20;2.20;99.90
6244;DHT22;3155;49.940;8.450;2022-11-11T02:35:52;2.20;99.90
6244;DHT22;3155;49.940;8.450;2022-11-11T02:38:23;2.30;99.90
6244;DHT22;3155;49.940;8.450;2022-11-11T02:40:50;2.30;99.90
6244;DHT22;3155;49.940;8.450;2022-11-11T02:43:36;2.40;99.90
6244;DHT22;3155;49.940;8.450;2022-11-11T02:46:06;2.40;99.90
6244;DHT22;3155;49.940;8.450;2022-11-11T02:48:33;2.50;99.90
6244;DHT22;3155;49.940;8.450;2022-11-11T02:51:00;2.70;99.90
6244;DHT22;3155;49.940;8.450;2022-11-11T02:53:27;2.70;99.90
6244;DHT22;3155;49.940;8.450;2022-11-11T02:55:55;2.90;99.90
6244;DHT22;3155;49.940;8.450;2022-11-11T02:58:22;3.00;99.90
6244;DHT22;3155;49.940;8.450;2022-11-11T03:00:48;3.10;99.90
6244;DHT22;3155;49.940;8.450;2022-11-11T03:03:15;3.20;99.90
6244;DHT22;3155;49.940;8.450;2022-11-11T03:05:42;3.30;99.90
6244;DHT22;3155;49.940;8.450;2022-11-11T03:08:12;3.40;99.90
6244;DHT22;3155;49.940;8.450;2022-11-11T03:10:38;3.50;99.90
6244;DHT22;3155;49.940;8.450;2022-11-11T03:13:05;3.50;99.90
6244;DHT22;3155;49.940;8.450;2022-11-11T03:15:38;3.60;99.90
6244;DHT22;3155;49.940;8.450;2022-11-11T03:18:04;3.70;99.90
6244;DHT22;3155;49.940;8.450;2022-11-11T03:20:31;3.70;99.90
6244;DHT22;3155;49.940;8.450;2022-11-11T03:23:16;3.80;99.90
6244;DHT22;3155;49.940;8.450;2022-11-11T03:25:46;3.80;99.90
6244;DHT22;3155;49.940;8.450;2022-11-11T03:28:15;3.90;99.90
6244;DHT22;3155;49.940;8.450;2022-11-11T03:30:44;4.00;99.90
6244;DHT22;3155;49.940;8.450;2022-11-11T03:33:11;3.90;99.90
6244;DHT22;3155;49.940;8.450;2022-11-11T03:35:39;4.00;99.90
6244;DHT22;3155;49.940;8.450;2022-11-11T03:38:07;4.00;99.90
6244;DHT22;3155;49.940;8.450;2022-11-11T03:40:43;4.00;99.90
6244;DHT22;3155;49.940;8.450;2022-11-11T03:43:11;4.00;99.90
6244;DHT22;3155;49.940;8.450;2022-11-11T03:45:38;4.10;99.90
6244;DHT22;3155;49.940;8.450;2022-11-11T03:48:05;4.10;99.90
6244;DHT22;3155;49.940;8.450;2022-11-11T03:50:32;4.10;99.90
6244;DHT22;3155;49.940;8.450;2022-11-11T03:52:59;4.10;99.90
6244;DHT22;3155;49.940;8.450;2022-11-11T03:55:26;4.10;99.90
6244;DHT22;3155;49.940;8.450;2022-11-11T03:57:53;4.10;99.90
6244;DHT22;3155;49.940;8.450;2022-11-11T04:00:23;4.20;99.90
6244;DHT22;3155;49.940;8.450;2022-11-11T04:02:50;4.20;99.90
6244;DHT22;3155;49.940;8.450;2022-11-11T04:05:36;4.20;99.90
6244;DHT22;3155;49.940;8.450;2022-11-11T04:08:21;4.20;99.90
6244;DHT22;3155;49.940;8.450;2022-11-11T04:11:13;4.30;99.90
6244;DHT22;3155;49.940;8.450;2022-11-11T04:13:42;4.20;99.90
6244;DHT22;3155;49.940;8.450;2022-11-11T04:16:30;4.30;99.90
6244;DHT22;3155;49.940;8.450;2022-11-11T04:18:56;4.30;99.90
6244;DHT22;3155;49.940;8.450;2022-11-11T04:21:45;4.30;99.90
6244;DHT22;3155;49.940;8.450;2022-11-11T04:24:16;4.40;99.90
6244;DHT22;3155;49.940;8.450;2022-11-11T04:27:04;4.40;99.90
6244;DHT22;3155;49.940;8.450;2022-11-11T04:29:31;4.40;99.90
6244;DHT22;3155;49.940;8.450;2022-11-11T04:34:47;4.40;99.90
6244;DHT22;3155;49.940;8.450;2022-11-11T04:37:16;4.50;99.90
6244;DHT22;3155;49.940;8.450;2022-11-11T04:39:45;4.50;99.90
6244;DHT22;3155;49.940;8.450;2022-11-11T04:42:31;4.50;99.90
6244;DHT22;3155;49.940;8.450;2022-11-11T04:44:58;4.40;99.90
6244;DHT22;3155;49.940;8.450;2022-11-11T04:48:08;4.40;99.90
6244;DHT22;3155;49.940;8.450;2022-11-11T04:50:37;4.30;99.90
6244;DHT22;3155;49.940;8.450;2022-11-11T04:53:13;4.30;99.90
6244;DHT22;3155;49.940;8.450;2022-11-11T04:55:41;4.30;99.90
6244;DHT22;3155;49.940;8.450;2022-11-11T04:58:34;4.30;99.90
6244;DHT22;3155;49.940;8.450;2022-11-11T05:01:01;4.30;99.90
6244;DHT22;3155;49.940;8.450;2022-11-11T05:03:29;4.30;99.90
6244;DHT22;3155;49.940;8.450;2022-11-11T05:05:57;4.30;99.90
6244;DHT22;3155;49.940;8.450;2022-11-11T05:08:46;4.30;99.90
6244;DHT22;3155;49.940;8.450;2022-11-11T05:11:25;4.30;99.90
6244;DHT22;3155;49.940;8.450;2022-11-11T05:13:53;4.30;99.90
6244;DHT22;3155;49.940;8.450;2022-11-11T05:16:55;4.30;99.90
6244;DHT22;3155;49.940;8.450;2022-11-11T05:19:44;4.30;99.90
6244;DHT22;3155;49.940;8.450;2022-11-11T05:22:31;4.30;99.90
6244;DHT22;3155;49.940;8.450;2022-11-11T05:24:58;4.30;99.90
6244;DHT22;3155;49.940;8.450;2022-11-11T05:27:44;4.20;99.90
6244;DHT22;3155;49.940;8.450;2022-11-11T05:30:13;4.10;99.90
6244;DHT22;3155;49.940;8.450;2022-11-11T05:32:40;4.20;99.90
6244;DHT22;3155;49.940;8.450;2022-11-11T05:35:08;4.20;99.90
6244;DHT22;3155;49.940;8.450;2022-11-11T05:37:35;4.20;99.90
6244;DHT22;3155;49.940;8.450;2022-11-11T05:40:02;4.20;99.90
6244;DHT22;3155;49.940;8.450;2022-11-11T05:42:29;4.10;99.90
6244;DHT22;3155;49.940;8.450;2022-11-11T05:44:56;4.10;99.90
6244;DHT22;3155;49.940;8.450;2022-11-11T05:47:23;4.10;99.90
6244;DHT22;3155;49.940;8.450;2022-11-11T05:49:50;4.00;99.90
6244;DHT22;3155;49.940;8.450;2022-11-11T05:52:18;4.00;99.90
6244;DHT22;3155;49.940;8.450;2022-11-11T05:54:45;4.00;99.90
6244;DHT22;3155;49.940;8.450;2022-11-11T05:57:14;3.90;99.90
6244;DHT22;3155;49.940;8.450;2022-11-11T05:59:41;3.90;99.90
6244;DHT22;3155;49.940;8.450;2022-11-11T06:02:09;3.90;99.90
6244;DHT22;3155;49.940;8.450;2022-11-11T06:04:36;4.00;99.90
6244;DHT22;3155;49.940;8.450;2022-11-11T06:07:03;4.00;99.90
6244;DHT22;3155;49.940;8.450;2022-11-11T06:09:32;4.00;99.90
6244;DHT22;3155;49.940;8.450;2022-11-11T06:11:59;4.00;99.90
6244;DHT22;3155;49.940;8.450;2022-11-11T06:14:27;4.00;99.90
6244;DHT22;3155;49.940;8.450;2022-11-11T06:16:53;4.00;99.90
6244;DHT22;3155;49.940;8.450;2022-11-11T06:19:20;4.00;99.90
6244;DHT22;3155;49.940;8.450;2022-11-11T06:21:46;4.00;99.90
6244;DHT22;3155;49.940;8.450;2022-11-11T06:24:23;4.00;99.90
6244;DHT22;3155;49.940;8.450;2022-11-11T06:26:53;4.00;99.90
6244;DHT22;3155;49.940;8.450;2022-11-11T06:29:20;4.00;99.90
6244;DHT22;3155;49.940;8.450;2022-11-11T06:31:47;4.10;99.90
6244;DHT22;3155;49.940;8.450;2022-11-11T06:34:15;4.10;99.90
6244;DHT22;3155;49.940;8.450;2022-11-11T06:36:42;4.10;99.90
6244;DHT22;3155;49.940;8.450;2022-11-11T06:39:09;4.10;99.90
6244;DHT22;3155;49.940;8.450;2022-11-11T06:41:35;4.10;99.90
6244;DHT22;3155;49.940;8.450;2022-11-11T06:44:08;4.10;99.90
6244;DHT22;3155;49.940;8.450;2022-11-11T06:46:41;4.10;99.90
6244;DHT22;3155;49.940;8.450;2022-11-11T06:49:08;4.20;99.90
6244;DHT22;3155;49.940;8.450;2022-11-11T06:51:34;4.20;99.90
6244;DHT22;3155;49.940;8.450;2022-11-11T06:54:01;4.10;99.90
6244;DHT22;3155;49.940;8.450;2022-11-11T06:56:27;4.10;99.90
6244;DHT22;3155;49.940;8.450;2022-11-11T06:58:54;4.20;99.90
6244;DHT22;3155;49.940;8.450;2022-11-11T07:01:21;4.20;99.90
6244;DHT22;3155;49.940;8.450;2022-11-11T07:03:48;4.20;99.90
6244;DHT22;3155;49.940;8.450;2022-11-11T07:06:17;4.20;99.90
6244;DHT22;3155;49.940;8.450;2022-11-11T07:08:44;4.30;99.90
6244;DHT22;3155;49.940;8.450;2022-11-11T07:11:11;4.40;99.90
6244;DHT22;3155;49.940;8.450;2022-11-11T07:13:44;4.50;99.90
6244;DHT22;3155;49.940;8.450;2022-11-11T07:16:11;4.40;99.90
6244;DHT22;3155;49.940;8.450;2022-11-11T07:18:37;4.50;99.90
6244;DHT22;3155;49.940;8.450;2022-11-11T07:21:04;4.50;99.90
6244;DHT22;3155;49.940;8.450;2022-11-11T07:23:34;4.60;99.90
6244;DHT22;3155;49.940;8.450;2022-11-11T07:26:01;4.60;99.90
6244;DHT22;3155;49.940;8.450;2022-11-11T07:28:27;4.60;99.90
6244;DHT22;3155;49.940;8.450;2022-11-11T07:30:54;4.70;99.90
6244;DHT22;3155;49.940;8.450;2022-11-11T07:33:21;4.80;99.90
6244;DHT22;3155;49.940;8.450;2022-11-11T07:35:50;4.80;99.90
6244;DHT22;3155;49.940;8.450;2022-11-11T07:38:17;4.80;99.90
6244;DHT22;3155;49.940;8.450;2022-11-11T07:40:44;4.80;99.90
6244;DHT22;3155;49.940;8.450;2022-11-11T07:43:11;4.80;99.90
6244;DHT22;3155;49.940;8.450;2022-11-11T07:45:37;4.80;99.90
6244;DHT22;3155;49.940;8.450;2022-11-11T07:48:04;4.80;99.90
6244;DHT22;3155;49.940;8.450;2022-11-11T07:50:31;5.00;99.90
6244;DHT22;3155;49.940;8.450;2022-11-11T07:52:58;5.10;99.90
6244;DHT22;3155;49.940;8.450;2022-11-11T07:55:24;5.10;99.90
6244;DHT22;3155;49.940;8.450;2022-11-11T07:57:51;5.20;99.90
6244;DHT22;3155;49.940;8.450;2022-11-11T08:00:19;5.20;99.90
6244;DHT22;3155;49.940;8.450;2022-11-11T08:02:49;5.20;99.90
6244;DHT22;3155;49.940;8.450;2022-11-11T08:05:20;5.40;99.90
6244;DHT22;3155;49.940;8.450;2022-11-11T08:07:47;5.40;99.90
6244;DHT22;3155;49.940;8.450;2022-11-11T08:10:14;5.40;99.90
6244;DHT22;3155;49.940;8.450;2022-11-11T08:12:41;5.40;99.90
6244;DHT22;3155;49.940;8.450;2022-11-11T08:15:26;5.50;99.90
6244;DHT22;3155;49.940;8.450;2022-11-11T08:17:53;5.60;99.90
6244;DHT22;3155;49.940;8.450;2022-11-11T08:20:19;5.60;99.90
6244;DHT22;3155;49.940;8.450;2022-11-11T08:22:46;5.70;99.90
6244;DHT22;3155;49.940;8.450;2022-11-11T08:25:33;5.70;99.90
6244;DHT22;3155;49.940;8.450;2022-11-11T08:28:02;5.70;99.90
6244;DHT22;3155;49.940;8.450;2022-11-11T08:30:30;5.90;99.90
6244;DHT22;3155;49.940;8.450;2022-11-11T08:33:00;6.00;99.90
6244;DHT22;3155;49.940;8.450;2022-11-11T08:35:47;6.10;99.90
6244;DHT22;3155;49.940;8.450;2022-11-11T08:38:14;6.10;99.90
6244;DHT22;3155;49.940;8.450;2022-11-11T08:40:41;6.20;99.90
6244;DHT22;3155;49.940;8.450;2022-11-11T08:43:08;6.20;99.90
6244;DHT22;3155;49.940;8.450;2022-11-11T08:45:35;6.30;99.90
6244;DHT22;3155;49.940;8.450;2022-11-11T08:48:01;6.50;99.90
6244;DHT22;3155;49.940;8.450;2022-11-11T08:50:28;6.50;99.90
6244;DHT22;3155;49.940;8.450;2022-11-11T08:52:55;6.50;99.90
6244;DHT22;3155;49.940;8.450;2022-11-11T08:55:22;6.60;99.90
6244;DHT22;3155;49.940;8.450;2022-11-11T08:58:04;6.60;99.90
6244;DHT22;3155;49.940;8.450;2022-11-11T09:00:32;6.60;99.90
6244;DHT22;3155;49.940;8.450;2022-11-11T09:03:00;6.50;99.90
6244;DHT22;3155;49.940;8.450;2022-11-11T09:05:28;6.60;99.90
6244;DHT22;3155;49.940;8.450;2022-11-11T09:07:55;6.60;99.90
6244;DHT22;3155;49.940;8.450;2022-11-11T09:10:22;6.60;99.90
6244;DHT22;3155;49.940;8.450;2022-11-11T09:12:48;6.80;99.90
6244;DHT22;3155;49.940;8.450;2022-11-11T09:15:23;6.70;99.90
6244;DHT22;3155;49.940;8.450;2022-11-11T09:17:50;6.60;99.90
6244;DHT22;3155;49.940;8.450;2022-11-11T09:20:17;6.60;99.90
6244;DHT22;3155;49.940;8.450;2022-11-11T09:22:50;6.70;99.90
6244;DHT22;3155;49.940;8.450;2022-11-11T09:25:19;6.80;99.90
6244;DHT22;3155;49.940;8.450;2022-11-11T09:27:56;7.00;99.90
6244;DHT22;3155;49.940;8.450;2022-11-11T09:30:25;7.00;99.90
6244;DHT22;3155;49.940;8.450;2022-11-11T09:32:52;6.80;99.90
6244;DHT22;3155;49.940;8.450;2022-11-11T09:35:22;6.60;99.90
6244;DHT22;3155;49.940;8.450;2022-11-11T09:37:53;6.70;99.90
6244;DHT22;3155;49.940;8.450;2022-11-11T09:40:23;6.70;99.90
6244;DHT22;3155;49.940;8.450;2022-11-11T09:43:09;6.50;99.90
6244;DHT22;3155;49.940;8.450;2022-11-11T09:45:47;6.60;99.90
6244;DHT22;3155;49.940;8.450;2022-11-11T09:49:01;6.80;99.90
6244;DHT22;3155;49.940;8.450;2022-11-11T09:51:31;6.80;71.50
6244;DHT22;3155;49.940;8.450;2022-11-11T09:54:04;6.90;69.20
6244;DHT22;3155;49.940;8.450;2022-11-11T09:56:32;7.20;79.40
6244;DHT22;3155;49.940;8.450;2022-11-11T09:59:25;7.30;22.00
6244;DHT22;3155;49.940;8.450;2022-11-11T10:01:55;7.20;1.00
6244;DHT22;3155;49.940;8.450;2022-11-11T10:04:51;7.20;1.00
6244;DHT22;3155;49.940;8.450;2022-11-11T10:07:40;7.50;1.00
6244;DHT22;3155;49.940;8.450;2022-11-11T10:10:14;7.40;1.00
6244;DHT22;3155;49.940;8.450;2022-11-11T10:12:48;7.30;99.90
6244;DHT22;3155;49.940;8.450;2022-11-11T10:15:16;7.10;99.90
6244;DHT22;3155;49.940;8.450;2022-11-11T10:20:31;6.90;99.90
6244;DHT22;3155;49.940;8.450;2022-11-11T10:23:13;7.10;1.00
6244;DHT22;3155;49.940;8.450;2022-11-11T10:25:52;7.30;1.00
6244;DHT22;3155;49.940;8.450;2022-11-11T10:28:22;7.40;1.00
6244;DHT22;3155;49.940;8.450;2022-11-11T10:30:53;7.40;1.00
6244;DHT22;3155;49.940;8.450;2022-11-11T10:33:26;7.50;1.00
6244;DHT22;3155;49.940;8.450;2022-11-11T10:35:54;7.70;99.90
6244;DHT22;3155;49.940;8.450;2022-11-11T10:38:34;7.70;99.90
6244;DHT22;3155;49.940;8.450;2022-11-11T10:41:13;7.60;99.90
6244;DHT22;3155;49.940;8.450;2022-11-11T10:43:44;7.70;1.00
6244;DHT22;3155;49.940;8.450;2022-11-11T10:46:23;7.80;1.00
6244;DHT22;3155;49.940;8.450;2022-11-11T10:49:01;7.70;1.00
6244;DHT22;3155;49.940;8.450;2022-11-11T10:51:41;7.70;99.90
6244;DHT22;3155;49.940;8.450;2022-11-11T10:54:29;7.80;26.10
6244;DHT22;3155;49.940;8.450;2022-11-11T10:57:03;7.70;99.90
6244;DHT22;3155;49.940;8.450;2022-11-11T10:59:38;7.70;99.90
6244;DHT22;3155;49.940;8.450;2022-11-11T11:02:20;7.70;99.90
6244;DHT22;3155;49.940;8.450;2022-11-11T11:04:51;7.50;99.90
6244;DHT22;3155;49.940;8.450;2022-11-11T11:07:28;7.60;33.40
6244;DHT22;3155;49.940;8.450;2022-11-11T11:10:11;7.80;1.00
6244;DHT22;3155;49.940;8.450;2022-11-11T11:15:23;8.10;71.50
6244;DHT22;3155;49.940;8.450;2022-11-11T11:18:05;7.90;38.40
6244;DHT22;3155;49.940;8.450;2022-11-11T11:20:33;7.90;1.00
6244;DHT22;3155;49.940;8.450;2022-11-11T11:23:09;8.00;1.00
6244;DHT22;3155;49.940;8.450;2022-11-11T11:25:36;8.00;99.90
6244;DHT22;3155;49.940;8.450;2022-11-11T11:28:13;8.10;99.90
6244;DHT22;3155;49.940;8.450;2022-11-11T11:30:39;8.30;99.90
6244;DHT22;3155;49.940;8.450;2022-11-11T11:33:23;8.30;99.90
6244;DHT22;3155;49.940;8.450;2022-11-11T11:35:49;8.40;99.90
6244;DHT22;3155;49.940;8.450;2022-11-11T11:38:16;8.40;1.00
6244;DHT22;3155;49.940;8.450;2022-11-11T11:40:46;8.40;99.90
6244;DHT22;3155;49.940;8.450;2022-11-11T11:45:57;8.40;99.90
6244;DHT22;3155;49.940;8.450;2022-11-11T11:57:07;8.00;99.90
6244;DHT22;3155;49.940;8.450;2022-11-11T12:00:12;7.90;99.90
6244;DHT22;3155;49.940;8.450;2022-11-11T12:03:38;7.60;99.90
6244;DHT22;3155;49.940;8.450;2022-11-11T12:06:20;7.80;1.00
6244;DHT22;3155;49.940;8.450;2022-11-11T12:11:31;8.20;99.90
6244;DHT22;3155;49.940;8.450;2022-11-11T12:14:11;8.30;1.00
6244;DHT22;3155;49.940;8.450;2022-11-11T12:16:52;8.20;1.00
6244;DHT22;3155;49.940;8.450;2022-11-11T12:42:46;8.20;99.90
6244;DHT22;3155;49.940;8.450;2022-11-11T12:45:22;8.10;99.90
6244;DHT22;3155;49.940;8.450;2022-11-11T12:48:02;8.10;1.00
6244;DHT22;3155;49.940;8.450;2022-11-11T12:56:33;8.20;99.90
6244;DHT22;3155;49.940;8.450;2022-11-11T13:10:32;8.70;22.80
6244;DHT22;3155;49.940;8.450;2022-11-11T13:15:43;8.80;99.90
6244;DHT22;3155;49.940;8.450;2022-11-11T13:18:17;8.80;73.80
6244;DHT22;3155;49.940;8.450;2022-11-11T13:20:51;8.80;1.00
6244;DHT22;3155;49.940;8.450;2022-11-11T13:23:35;8.90;1.00
6244;DHT22;3155;49.940;8.450;2022-11-11T13:26:05;8.90;99.90
6244;DHT22;3155;49.940;8.450;2022-11-11T13:28:40;8.80;99.90
6244;DHT22;3155;49.940;8.450;2022-11-11T13:31:21;8.70;99.90
6244;DHT22;3155;49.940;8.450;2022-11-11T13:33:55;8.50;99.90
6244;DHT22;3155;49.940;8.450;2022-11-11T13:36:26;8.20;1.00
6244;DHT22;3155;49.940;8.450;2022-11-11T13:39:02;8.10;99.90
6244;DHT22;3155;49.940;8.450;2022-11-11T13:41:32;8.10;1.00
6244;DHT22;3155;49.940;8.450;2022-11-11T13:44:16;8.00;1.00
6244;DHT22;3155;49.940;8.450;2022-11-11T13:46:45;8.00;99.90
6244;DHT22;3155;49.940;8.450;2022-11-11T13:52:04;7.90;1.00
6244;DHT22;3155;49.940;8.450;2022-11-11T13:54:34;8.00;99.90
6244;DHT22;3155;49.940;8.450;2022-11-11T13:59:42;8.00;99.90
6244;DHT22;3155;49.940;8.450;2022-11-11T14:12:52;8.10;1.00
6244;DHT22;3155;49.940;8.450;2022-11-11T14:15:45;8.10;99.90
6244;DHT22;3155;49.940;8.450;2022-11-11T14:20:48;8.00;1.00
6244;DHT22;3155;49.940;8.450;2022-11-11T14:28:38;7.90;1.00
6244;DHT22;3155;49.940;8.450;2022-11-11T14:31:40;7.70;1.00
6244;DHT22;3155;49.940;8.450;2022-11-11T14:34:17;7.60;99.90
6244;DHT22;3155;49.940;8.450;2022-11-11T14:37:14;7.60;99.90
6244;DHT22;3155;49.940;8.450;2022-11-11T14:39:53;7.60;1.00
6244;DHT22;3155;49.940;8.450;2022-11-11T14:47:48;7.50;85.40
6244;DHT22;3155;49.940;8.450;2022-11-11T14:53:00;7.40;99.90
6244;DHT22;3155;49.940;8.450;2022-11-11T14:55:29;7.40;99.90
6244;DHT22;3155;49.940;8.450;2022-11-11T14:58:14;7.30;99.90
6244;DHT22;3155;49.940;8.450;2022-11-11T15:01:02;7.20;99.90
6244;DHT22;3155;49.940;8.450;2022-11-11T15:03:39;7.10;99.90
6244;DHT22;3155;49.940;8.450;2022-11-11T15:06:27;7.10;99.90
6244;DHT22;3155;49.940;8.450;2022-11-11T15:09:10;7.10;1.00
6244;DHT22;3155;49.940;8.450;2022-11-11T15:11:58;7.00;1.00
6244;DHT22;3155;49.940;8.450;2022-11-11T15:17:40;6.90;1.00
6244;DHT22;3155;49.940;8.450;2022-11-11T15:34:29;6.80;1.00
6244;DHT22;3155;49.940;8.450;2022-11-11T15:37:14;6.80;1.00
6244;DHT22;3155;49.940;8.450;2022-11-11T15:39:50;6.80;1.00
6244;DHT22;3155;49.940;8.450;2022-11-11T15:42:33;6.70;1.00
6244;DHT22;3155;49.940;8.450;2022-11-11T15:45:19;6.70;14.80
6244;DHT22;3155;49.940;8.450;2022-11-11T15:47:48;6.80;27.80
6244;DHT22;3155;49.940;8.450;2022-11-11T15:52:59;6.70;37.70
6244;DHT22;3155;49.940;8.450;2022-11-11T15:55:35;6.60;38.00
6244;DHT22;3155;49.940;8.450;2022-11-11T15:58:13;6.50;53.40
6244;DHT22;3155;49.940;8.450;2022-11-11T16:00:41;6.50;69.60
6244;DHT22;3155;49.940;8.450;2022-11-11T16:03:17;6.50;80.10
6244;DHT22;3155;49.940;8.450;2022-11-11T16:05:44;6.50;88.80
6244;DHT22;3155;49.940;8.450;2022-11-11T16:08:16;6.50;87.90
6244;DHT22;3155;49.940;8.450;2022-11-11T16:10:51;6.50;92.90
6244;DHT22;3155;49.940;8.450;2022-11-11T16:13:21;6.50;97.70
6244;DHT22;3155;49.940;8.450;2022-11-11T16:15:56;6.40;99.90
6244;DHT22;3155;49.940;8.450;2022-11-11T16:18:32;6.40;99.90
6244;DHT22;3155;49.940;8.450;2022-11-11T16:21:06;6.40;99.90
6244;DHT22;3155;49.940;8.450;2022-11-11T16:23:36;6.40;99.90
6244;DHT22;3155;49.940;8.450;2022-11-11T16:26:05;6.40;99.90
6244;DHT22;3155;49.940;8.450;2022-11-11T16:28:43;6.40;99.90
6244;DHT22;3155;49.940;8.450;2022-11-11T16:31:29;6.30;99.90
6244;DHT22;3155;49.940;8.450;2022-11-11T16:33:57;6.40;99.90
6244;DHT22;3155;49.940;8.450;2022-11-11T16:36:23;6.40;99.90
6244;DHT22;3155;49.940;8.450;2022-11-11T16:38:50;6.40;99.90
6244;DHT22;3155;49.940;8.450;2022-11-11T16:43:55;6.40;99.90
6244;DHT22;3155;49.940;8.450;2022-11-11T16:46:38;6.40;99.90
6244;DHT22;3155;49.940;8.450;2022-11-11T16:51:54;6.40;99.90
6244;DHT22;3155;49.940;8.450;2022-11-11T16:54:24;6.40;99.90
6244;DHT22;3155;49.940;8.450;2022-11-11T16:56:54;6.30;99.90
6244;DHT22;3155;49.940;8.450;2022-11-11T16:59:38;6.20;99.90
6244;DHT22;3155;49.940;8.450;2022-11-11T17:02:16;6.20;99.90
6244;DHT22;3155;49.940;8.450;2022-11-11T17:04:48;6.20;99.90
6244;DHT22;3155;49.940;8.450;2022-11-11T17:07:31;6.20;99.90
6244;DHT22;3155;49.940;8.450;2022-11-11T17:12:37;6.20;99.90
6244;DHT22;3155;49.940;8.450;2022-11-11T17:15:09;6.20;99.90
6244;DHT22;3155;49.940;8.450;2022-11-11T17:17:37;6.20;99.90
6244;DHT22;3155;49.940;8.450;2022-11-11T17:20:28;6.20;99.90
6244;DHT22;3155;49.940;8.450;2022-11-11T17:22:56;6.20;99.90
6244;DHT22;3155;49.940;8.450;2022-11-11T17:25:23;6.30;99.90
6244;DHT22;3155;49.940;8.450;2022-11-11T17:27:50;6.30;99.90
6244;DHT22;3155;49.940;8.450;2022-11-11T17:30:17;6.30;99.90
6244;DHT22;3155;49.940;8.450;2022-11-11T17:32:46;6.30;99.90
6244;DHT22;3155;49.940;8.450;2022-11-11T17:35:14;6.30;99.90
6244;DHT22;3155;49.940;8.450;2022-11-11T17:37:40;6.30;99.90
6244;DHT22;3155;49.940;8.450;2022-11-11T17:40:09;6.30;99.90
6244;DHT22;3155;49.940;8.450;2022-11-11T17:42:36;6.30;99.90
6244;DHT22;3155;49.940;8.450;2022-11-11T17:45:03;6.30;99.90
6244;DHT22;3155;49.940;8.450;2022-11-11T17:47:30;6.30;99.90
6244;DHT22;3155;49.940;8.450;2022-11-11T17:50:08;6.20;99.90
6244;DHT22;3155;49.940;8.450;2022-11-11T17:52:34;6.20;99.90
6244;DHT22;3155;49.940;8.450;2022-11-11T17:55:01;6.20;99.90
6244;DHT22;3155;49.940;8.450;2022-11-11T17:57:28;6.20;99.90
6244;DHT22;3155;49.940;8.450;2022-11-11T17:59:57;6.10;99.90
6244;DHT22;3155;49.940;8.450;2022-11-11T18:02:24;6.20;99.90
6244;DHT22;3155;49.940;8.450;2022-11-11T18:04:51;6.20;99.90
6244;DHT22;3155;49.940;8.450;2022-11-11T18:07:19;6.10;99.90
6244;DHT22;3155;49.940;8.450;2022-11-11T18:09:46;6.20;99.90
6244;DHT22;3155;49.940;8.450;2022-11-11T18:12:13;6.20;99.90
6244;DHT22;3155;49.940;8.450;2022-11-11T18:14:40;6.20;99.90
6244;DHT22;3155;49.940;8.450;2022-11-11T18:17:06;6.10;99.90
6244;DHT22;3155;49.940;8.450;2022-11-11T18:19:36;6.10;99.90
6244;DHT22;3155;49.940;8.450;2022-11-11T18:22:03;6.20;99.90
6244;DHT22;3155;49.940;8.450;2022-11-11T18:24:30;6.20;99.90
6244;DHT22;3155;49.940;8.450;2022-11-11T18:26:56;6.20;99.90
6244;DHT22;3155;49.940;8.450;2022-11-11T18:29:23;6.20;99.90
6244;DHT22;3155;49.940;8.450;2022-11-11T18:31:51;6.20;99.90
6244;DHT22;3155;49.940;8.450;2022-11-11T18:34:22;6.20;99.90
6244;DHT22;3155;49.940;8.450;2022-11-11T18:36:54;6.20;99.90
6244;DHT22;3155;49.940;8.450;2022-11-11T18:39:21;6.10;99.90
6244;DHT22;3155;49.940;8.450;2022-11-11T18:41:48;6.10;99.90
6244;DHT22;3155;49.940;8.450;2022-11-11T18:44:14;6.10;99.90
6244;DHT22;3155;49.940;8.450;2022-11-11T18:46:41;6.10;99.90
6244;DHT22;3155;49.940;8.450;2022-11-11T18:49:11;6.10;99.90
6244;DHT22;3155;49.940;8.450;2022-11-11T18:51:38;6.10;99.90
6244;DHT22;3155;49.940;8.450;2022-11-11T18:54:06;6.20;99.90
6244;DHT22;3155;49.940;8.450;2022-11-11T18:56:36;6.20;99.90
6244;DHT22;3155;49.940;8.450;2022-11-11T18:59:05;6.20;99.90
6244;DHT22;3155;49.940;8.450;2022-11-11T19:01:33;6.20;99.90
6244;DHT22;3155;49.940;8.450;2022-11-11T19:04:05;6.20;99.90
6244;DHT22;3155;49.940;8.450;2022-11-11T19:06:35;6.30;99.90
6244;DHT22;3155;49.940;8.450;2022-11-11T19:09:10;6.20;99.90
6244;DHT22;3155;49.940;8.450;2022-11-11T19:11:40;6.30;99.90